createdAt,value
2017-09-21T00:00:42.162Z,2.59
2017-09-21T00:01:42.248Z,2.53
2017-09-21T00:02:42.124Z,2.61
2017-09-21T00:03:42.107Z,2.59
2017-09-21T00:04:42.089Z,2.56
2017-09-21T00:05:42.071Z,2.53
2017-09-21T00:06:42.058Z,2.53
2017-09-21T00:07:42.139Z,2.45
2017-09-21T00:08:42.016Z,2.48
2017-09-21T00:09:42.004Z,2.54
2017-09-21T00:10:41.980Z,2.52
2017-09-21T00:11:41.962Z,2.48
2017-09-21T00:12:41.943Z,2.48
2017-09-21T00:13:42.023Z,2.43
2017-09-21T00:14:41.911Z,2.38
2017-09-21T00:15:41.893Z,2.42
2017-09-21T00:16:41.869Z,2.39
2017-09-21T00:17:41.851Z,2.41
2017-09-21T00:18:41.834Z,2.43
2017-09-21T00:19:41.920Z,2.41
2017-09-21T00:20:41.795Z,2.36
2017-09-21T00:21:41.784Z,2.46
2017-09-21T00:22:41.760Z,2.41
2017-09-21T00:23:41.740Z,2.36
2017-09-21T00:24:41.725Z,2.38
2017-09-21T00:25:41.805Z,2.35
2017-09-21T00:26:41.686Z,2.35
2017-09-21T00:27:41.668Z,2.36
2017-09-21T00:28:41.656Z,2.27
2017-09-21T00:29:41.637Z,2.34
2017-09-21T00:30:41.618Z,2.30
2017-09-21T00:31:41.695Z,2.27
2017-09-21T00:32:41.574Z,2.28
2017-09-21T00:33:41.561Z,2.27
2017-09-21T00:34:41.538Z,2.24
2017-09-21T00:35:41.521Z,2.30
2017-09-21T00:36:41.501Z,2.27
2017-09-21T00:37:41.583Z,2.25
2017-09-21T00:38:41.469Z,2.23
2017-09-21T00:39:41.447Z,2.27
2017-09-21T00:40:41.425Z,2.20
2017-09-21T00:41:41.408Z,2.16
2017-09-21T00:42:41.390Z,2.16
2017-09-21T00:43:41.470Z,2.20
2017-09-21T00:44:41.357Z,2.23
2017-09-21T00:45:41.333Z,2.16
2017-09-21T00:46:41.315Z,2.25
2017-09-21T00:47:41.296Z,2.14
2017-09-21T00:48:41.290Z,2.20
2017-09-21T00:49:41.359Z,2.17
2017-09-21T00:50:41.490Z,2.14
2017-09-21T00:51:41.222Z,2.12
2017-09-21T00:52:41.203Z,2.14
2017-09-21T00:53:41.195Z,2.20
2017-09-21T00:54:41.168Z,2.21
2017-09-21T00:55:41.149Z,2.14
2017-09-21T00:56:41.279Z,2.18
2017-09-21T00:57:41.117Z,2.17
2017-09-21T00:58:41.097Z,2.16
2017-09-21T00:59:41.073Z,2.18
2017-09-21T01:00:41.064Z,2.14
2017-09-21T01:01:41.041Z,2.09
2017-09-21T01:02:41.119Z,2.12
2017-09-21T01:03:41.004Z,2.10
2017-09-21T01:04:40.986Z,2.16
2017-09-21T01:05:40.960Z,2.12
2017-09-21T01:06:40.976Z,2.16
2017-09-21T01:07:40.925Z,2.17
2017-09-21T01:08:41.054Z,2.16
2017-09-21T01:09:40.887Z,2.20
2017-09-21T01:10:40.868Z,2.09
2017-09-21T01:11:40.850Z,2.17
2017-09-21T01:12:40.830Z,2.07
2017-09-21T01:13:40.812Z,2.18
2017-09-21T01:14:40.899Z,2.17
2017-09-21T01:15:40.775Z,2.05
2017-09-21T01:16:40.761Z,2.05
2017-09-21T01:17:40.736Z,2.09
2017-09-21T01:18:40.717Z,2.02
2017-09-21T01:19:40.701Z,2.06
2017-09-21T01:20:40.979Z,2.02
2017-09-21T01:21:40.662Z,2.03
2017-09-21T01:22:40.648Z,2.03
2017-09-21T01:23:40.623Z,2.07
2017-09-21T01:24:40.605Z,2.03
2017-09-21T01:25:40.585Z,1.95
2017-09-21T01:26:40.717Z,1.95
2017-09-21T01:27:40.551Z,1.99
2017-09-21T01:28:40.534Z,1.99
2017-09-21T01:29:40.510Z,1.90
2017-09-21T01:30:40.492Z,1.87
2017-09-21T01:31:40.478Z,1.98
2017-09-21T01:32:40.715Z,1.87
2017-09-21T01:33:40.439Z,1.86
2017-09-21T01:34:40.415Z,1.84
2017-09-21T01:35:40.398Z,1.84
2017-09-21T01:36:40.386Z,1.81
2017-09-21T01:37:40.365Z,1.88
2017-09-21T01:38:40.440Z,1.83
2017-09-21T01:39:40.321Z,1.80
2017-09-21T01:40:40.300Z,1.81
2017-09-21T01:41:40.282Z,1.77
2017-09-21T01:42:40.264Z,1.79
2017-09-21T01:43:40.243Z,1.73
2017-09-21T01:44:40.326Z,1.80
2017-09-21T01:45:40.206Z,1.79
2017-09-21T01:46:40.188Z,1.79
2017-09-21T01:47:40.167Z,1.76
2017-09-21T01:48:40.148Z,1.66
2017-09-21T01:49:40.136Z,1.76
2017-09-21T01:50:40.211Z,1.69
2017-09-21T01:51:40.097Z,1.72
2017-09-21T01:52:40.072Z,1.68
2017-09-21T01:53:40.053Z,1.66
2017-09-21T01:54:40.034Z,1.66
2017-09-21T01:55:40.021Z,1.68
2017-09-21T01:56:40.097Z,1.66
2017-09-21T01:57:39.982Z,1.60
2017-09-21T01:58:39.959Z,1.69
2017-09-21T01:59:39.940Z,1.69
2017-09-21T02:00:39.925Z,1.68
2017-09-21T02:01:39.906Z,1.62
2017-09-21T02:02:39.982Z,1.66
2017-09-21T02:03:39.863Z,1.60
2017-09-21T02:04:39.842Z,1.59
2017-09-21T02:05:39.823Z,1.63
2017-09-21T02:06:39.807Z,1.63
2017-09-21T02:07:39.786Z,1.68
2017-09-21T02:08:39.866Z,1.55
2017-09-21T02:09:39.748Z,1.60
2017-09-21T02:10:39.730Z,1.63
2017-09-21T02:11:39.717Z,1.63
2017-09-21T02:12:39.690Z,1.69
2017-09-21T02:13:39.671Z,1.68
2017-09-21T02:14:39.753Z,1.68
2017-09-21T02:15:39.633Z,1.63
2017-09-21T02:16:39.614Z,1.58
2017-09-21T02:17:39.600Z,1.59
2017-09-21T02:18:39.575Z,1.68
2017-09-21T02:19:39.563Z,1.58
2017-09-21T02:20:39.637Z,1.65
2017-09-21T02:21:39.524Z,1.55
2017-09-21T02:22:39.499Z,1.55
2017-09-21T02:23:39.480Z,1.58
2017-09-21T02:24:39.463Z,1.59
2017-09-21T02:25:39.442Z,1.60
2017-09-21T02:26:39.524Z,1.60
2017-09-21T02:27:39.410Z,1.62
2017-09-21T02:28:39.390Z,1.62
2017-09-21T02:29:39.372Z,1.59
2017-09-21T02:30:39.347Z,1.58
2017-09-21T02:31:39.328Z,1.65
2017-09-21T02:32:39.415Z,1.55
2017-09-21T02:33:39.289Z,1.51
2017-09-21T02:34:39.269Z,1.60
2017-09-21T02:35:39.256Z,1.55
2017-09-21T02:36:39.231Z,1.52
2017-09-21T02:37:39.218Z,1.50
2017-09-21T02:38:39.292Z,1.52
2017-09-21T02:39:39.174Z,1.52
2017-09-21T02:40:39.154Z,1.48
2017-09-21T02:41:39.141Z,1.52
2017-09-21T02:42:39.119Z,1.50
2017-09-21T02:43:39.096Z,1.50
2017-09-21T02:44:39.177Z,1.47
2017-09-21T02:45:39.058Z,1.50
2017-09-21T02:46:39.063Z,1.45
2017-09-21T02:47:39.019Z,1.55
2017-09-21T02:48:39.005Z,1.51
2017-09-21T02:49:38.983Z,1.48
2017-09-21T02:50:39.068Z,1.50
2017-09-21T02:51:38.943Z,1.50
2017-09-21T02:52:38.930Z,1.55
2017-09-21T02:53:38.903Z,1.51
2017-09-21T02:54:38.992Z,1.48
2017-09-21T02:55:38.866Z,1.48
2017-09-21T02:56:38.946Z,1.50
2017-09-21T02:57:38.826Z,1.48
2017-09-21T02:58:38.809Z,1.47
2017-09-21T02:59:38.796Z,1.45
2017-09-21T03:00:38.775Z,1.54
2017-09-21T03:01:38.751Z,1.42
2017-09-21T03:02:38.832Z,1.45
2017-09-21T03:03:38.713Z,1.47
2017-09-21T03:04:38.692Z,1.47
2017-09-21T03:05:38.678Z,1.47
2017-09-21T03:06:38.660Z,1.47
2017-09-21T03:07:38.636Z,1.42
2017-09-21T03:08:38.717Z,1.40
2017-09-21T03:09:38.603Z,1.50
2017-09-21T03:10:38.577Z,1.50
2017-09-21T03:11:38.559Z,1.44
2017-09-21T03:12:38.540Z,1.36
2017-09-21T03:13:38.520Z,1.50
2017-09-21T03:14:38.601Z,1.40
2017-09-21T03:15:38.482Z,1.40
2017-09-21T03:16:38.460Z,1.36
2017-09-21T03:17:38.442Z,1.37
2017-09-21T03:18:38.423Z,1.41
2017-09-21T03:19:38.419Z,1.44
2017-09-21T03:20:38.489Z,1.40
2017-09-21T03:21:38.365Z,1.42
2017-09-21T03:22:38.346Z,1.41
2017-09-21T03:23:38.329Z,1.37
2017-09-21T03:24:38.313Z,1.45
2017-09-21T03:25:38.286Z,1.40
2017-09-21T03:26:38.369Z,1.33
2017-09-21T03:27:38.255Z,1.40
2017-09-21T03:28:38.234Z,1.36
2017-09-21T03:29:38.209Z,1.33
2017-09-21T03:30:38.192Z,1.34
2017-09-21T03:31:38.170Z,1.40
2017-09-21T03:32:38.251Z,1.37
2017-09-21T03:33:38.138Z,1.33
2017-09-21T03:34:38.113Z,1.40
2017-09-21T03:35:38.094Z,1.42
2017-09-21T03:36:38.074Z,1.40
2017-09-21T03:37:38.054Z,1.37
2017-09-21T03:38:38.135Z,1.42
2017-09-21T03:39:38.022Z,1.40
2017-09-21T03:40:37.996Z,1.32
2017-09-21T03:41:37.977Z,1.34
2017-09-21T03:42:37.957Z,1.36
2017-09-21T03:43:37.940Z,1.33
2017-09-21T03:44:38.018Z,1.32
2017-09-21T03:45:37.907Z,1.33
2017-09-21T03:46:37.886Z,1.37
2017-09-21T03:47:37.861Z,1.37
2017-09-21T03:48:37.840Z,1.34
2017-09-21T03:49:37.926Z,1.34
2017-09-21T03:50:37.905Z,1.24
2017-09-21T03:51:37.783Z,1.32
2017-09-21T03:52:37.768Z,1.34
2017-09-21T03:53:37.744Z,1.24
2017-09-21T03:54:37.723Z,1.30
2017-09-21T03:55:37.705Z,1.27
2017-09-21T03:56:37.785Z,1.24
2017-09-21T03:57:37.666Z,1.23
2017-09-21T03:58:37.752Z,1.24
2017-09-21T03:59:37.628Z,1.32
2017-09-21T04:00:37.613Z,1.23
2017-09-21T04:01:37.589Z,1.29
2017-09-21T04:02:37.670Z,1.24
2017-09-21T04:03:37.549Z,1.22
2017-09-21T04:04:37.530Z,1.20
2017-09-21T04:05:37.616Z,1.22
2017-09-21T04:06:37.492Z,1.27
2017-09-21T04:07:37.474Z,1.27
2017-09-21T04:08:37.551Z,1.18
2017-09-21T04:09:37.431Z,1.20
2017-09-21T04:10:37.415Z,1.22
2017-09-21T04:11:37.393Z,1.18
2017-09-21T04:12:37.373Z,1.24
2017-09-21T04:13:37.353Z,1.22
2017-09-21T04:14:37.434Z,1.22
2017-09-21T04:15:37.317Z,1.22
2017-09-21T04:16:37.301Z,1.15
2017-09-21T04:17:37.281Z,1.15
2017-09-21T04:18:37.261Z,1.18
2017-09-21T04:19:37.238Z,1.16
2017-09-21T04:20:37.316Z,1.15
2017-09-21T04:21:37.298Z,1.20
2017-09-21T04:22:37.176Z,1.09
2017-09-21T04:23:37.158Z,1.15
2017-09-21T04:24:37.143Z,1.15
2017-09-21T04:25:37.118Z,1.14
2017-09-21T04:26:37.207Z,1.18
2017-09-21T04:27:37.080Z,1.11
2017-09-21T04:28:37.065Z,1.15
2017-09-21T04:29:37.041Z,1.15
2017-09-21T04:30:37.023Z,1.11
2017-09-21T04:31:37.002Z,1.08
2017-09-21T04:32:37.081Z,1.12
2017-09-21T04:33:36.967Z,1.16
2017-09-21T04:34:36.941Z,1.16
2017-09-21T04:35:36.923Z,1.11
2017-09-21T04:36:36.902Z,1.05
2017-09-21T04:37:36.883Z,1.11
2017-09-21T04:38:36.969Z,1.12
2017-09-21T04:39:36.850Z,1.06
2017-09-21T04:40:36.825Z,1.14
2017-09-21T04:41:36.805Z,1.12
2017-09-21T04:42:36.791Z,1.09
2017-09-21T04:43:36.766Z,1.04
2017-09-21T04:44:36.845Z,1.12
2017-09-21T04:45:36.733Z,1.09
2017-09-21T04:46:36.709Z,1.11
2017-09-21T04:47:36.688Z,1.06
2017-09-21T04:48:36.768Z,1.02
2017-09-21T04:49:36.655Z,1.14
2017-09-21T04:50:36.730Z,1.11
2017-09-21T04:51:36.610Z,1.05
2017-09-21T04:52:36.591Z,1.09
2017-09-21T04:53:36.576Z,1.05
2017-09-21T04:54:36.551Z,1.06
2017-09-21T04:55:36.534Z,1.09
2017-09-21T04:56:36.613Z,1.04
2017-09-21T04:57:36.498Z,1.08
2017-09-21T04:58:36.476Z,1.06
2017-09-21T04:59:36.454Z,1.05
2017-09-21T05:00:36.439Z,1.06
2017-09-21T05:01:36.414Z,1.02
2017-09-21T05:02:36.495Z,1.04
2017-09-21T05:03:36.381Z,1.00
2017-09-21T05:04:36.356Z,1.02
2017-09-21T05:05:36.336Z,1.11
2017-09-21T05:06:36.318Z,0.98
2017-09-21T05:07:36.299Z,1.11
2017-09-21T05:08:36.379Z,1.04
2017-09-21T05:09:36.259Z,1.12
2017-09-21T05:10:36.245Z,1.11
2017-09-21T05:11:36.221Z,1.11
2017-09-21T05:12:36.205Z,1.08
2017-09-21T05:13:36.181Z,1.15
2017-09-21T05:14:36.260Z,1.14
2017-09-21T05:15:36.147Z,1.14
2017-09-21T05:16:36.126Z,1.15
2017-09-21T05:17:36.109Z,1.16
2017-09-21T05:18:36.083Z,1.15
2017-09-21T05:19:36.063Z,1.24
2017-09-21T05:20:36.143Z,1.26
2017-09-21T05:21:36.024Z,1.22
2017-09-21T05:22:36.004Z,1.22
2017-09-21T05:23:35.986Z,1.22
2017-09-21T05:24:35.965Z,1.24
2017-09-21T05:25:35.944Z,1.24
2017-09-21T05:26:36.025Z,1.22
2017-09-21T05:27:35.908Z,1.23
2017-09-21T05:28:35.886Z,1.23
2017-09-21T05:29:35.873Z,1.30
2017-09-21T05:30:35.847Z,1.24
2017-09-21T05:31:35.828Z,1.20
2017-09-21T05:32:35.909Z,1.24
2017-09-21T05:33:35.790Z,1.30
2017-09-21T05:34:35.770Z,1.30
2017-09-21T05:35:35.752Z,1.33
2017-09-21T05:36:35.730Z,1.32
2017-09-21T05:37:35.711Z,1.30
2017-09-21T05:38:35.793Z,1.30
2017-09-21T05:39:35.679Z,1.36
2017-09-21T05:40:35.758Z,1.36
2017-09-21T05:41:35.634Z,1.32
2017-09-21T05:42:35.618Z,1.36
2017-09-21T05:43:35.596Z,1.41
2017-09-21T05:44:35.677Z,1.37
2017-09-21T05:45:35.556Z,1.42
2017-09-21T05:46:35.538Z,1.33
2017-09-21T05:47:35.520Z,1.34
2017-09-21T05:48:35.498Z,1.42
2017-09-21T05:49:35.477Z,1.34
2017-09-21T05:50:35.564Z,1.33
2017-09-21T05:51:35.544Z,1.48
2017-09-21T05:52:35.426Z,1.41
2017-09-21T05:53:35.403Z,1.51
2017-09-21T05:54:35.381Z,1.45
2017-09-21T05:55:35.365Z,1.42
2017-09-21T05:56:35.343Z,1.42
2017-09-21T05:57:35.427Z,1.40
2017-09-21T05:58:35.304Z,1.45
2017-09-21T05:59:35.286Z,1.48
2017-09-21T06:00:35.271Z,1.51
2017-09-21T06:01:35.251Z,1.48
2017-09-21T06:02:35.227Z,1.52
2017-09-21T06:03:35.310Z,1.51
2017-09-21T06:04:35.189Z,1.50
2017-09-21T06:05:35.175Z,1.50
2017-09-21T06:06:35.156Z,1.50
2017-09-21T06:07:35.131Z,1.50
2017-09-21T06:08:35.212Z,1.50
2017-09-21T06:09:35.193Z,1.55
2017-09-21T06:10:35.073Z,1.55
2017-09-21T06:11:35.061Z,1.54
2017-09-21T06:12:35.042Z,1.63
2017-09-21T06:13:35.023Z,1.66
2017-09-21T06:14:35.004Z,1.69
2017-09-21T06:15:35.080Z,1.70
2017-09-21T06:16:34.958Z,1.69
2017-09-21T06:17:34.939Z,1.68
2017-09-21T06:18:34.926Z,1.73
2017-09-21T06:19:34.902Z,1.72
2017-09-21T06:20:34.881Z,1.68
2017-09-21T06:21:34.964Z,1.66
2017-09-21T06:22:34.851Z,1.83
2017-09-21T06:23:34.827Z,2.18
2017-09-21T06:24:34.809Z,2.42
2017-09-21T06:25:34.796Z,2.78
2017-09-21T06:26:34.776Z,3.05
2017-09-21T06:27:34.854Z,3.20
2017-09-21T06:28:34.735Z,3.61
2017-09-21T06:29:34.718Z,3.88
2017-09-21T06:30:34.701Z,4.20
2017-09-21T06:31:34.683Z,4.60
2017-09-21T06:32:34.670Z,4.55
2017-09-21T06:33:34.746Z,4.72
2017-09-21T06:34:34.629Z,5.07
2017-09-21T06:35:34.619Z,5.51
2017-09-21T06:36:34.597Z,5.97
2017-09-21T06:37:34.584Z,6.21
2017-09-21T06:38:34.561Z,6.58
2017-09-21T06:39:34.651Z,6.81
2017-09-21T06:40:34.527Z,7.24
2017-09-21T06:41:34.512Z,7.39
2017-09-21T06:42:34.497Z,6.98
2017-09-21T06:43:34.481Z,6.61
2017-09-21T06:44:34.463Z,6.11
2017-09-21T06:45:34.553Z,6.00
2017-09-21T06:46:34.532Z,6.15
2017-09-21T06:47:34.418Z,6.55
2017-09-21T06:48:34.402Z,7.12
2017-09-21T06:49:34.391Z,7.60
2017-09-21T06:50:34.371Z,7.27
2017-09-21T06:51:34.456Z,7.02
2017-09-21T06:52:34.341Z,6.79
2017-09-21T06:53:34.333Z,6.56
2017-09-21T06:54:34.411Z,6.15
2017-09-21T06:55:34.300Z,5.94
2017-09-21T06:56:34.279Z,6.06
2017-09-21T06:57:34.270Z,6.70
2017-09-21T06:58:34.348Z,7.37
2017-09-21T06:59:34.234Z,7.80
2017-09-21T07:00:34.320Z,7.89
2017-09-21T07:01:34.206Z,7.60
2017-09-21T07:02:34.191Z,7.52
2017-09-21T07:03:34.176Z,7.45
2017-09-21T07:04:34.260Z,7.34
2017-09-21T07:05:34.151Z,7.39
2017-09-21T07:06:34.132Z,7.39
2017-09-21T07:07:34.120Z,7.24
2017-09-21T07:08:34.106Z,7.15
2017-09-21T07:09:34.091Z,7.10
2017-09-21T07:10:34.177Z,7.31
2017-09-21T07:11:34.063Z,7.77
2017-09-21T07:12:34.047Z,8.29
2017-09-21T07:13:34.036Z,8.73
2017-09-21T07:14:34.021Z,8.74
2017-09-21T07:15:34.008Z,9.10
2017-09-21T07:16:34.094Z,8.99
2017-09-21T07:17:33.981Z,8.66
2017-09-21T07:18:34.067Z,8.91
2017-09-21T07:19:33.954Z,9.24
2017-09-21T07:20:33.942Z,9.61
2017-09-21T07:21:33.932Z,9.84
2017-09-21T07:22:34.014Z,9.54
2017-09-21T07:23:33.900Z,9.58
2017-09-21T07:24:33.892Z,9.26
2017-09-21T07:25:33.874Z,8.96
2017-09-21T07:26:33.861Z,8.77
2017-09-21T07:27:33.854Z,9.13
2017-09-21T07:28:33.935Z,9.35
2017-09-21T07:29:33.921Z,9.40
2017-09-21T07:30:33.808Z,9.38
2017-09-21T07:31:33.795Z,9.18
2017-09-21T07:32:33.782Z,9.04
2017-09-21T07:33:33.774Z,9.05
2017-09-21T07:34:33.857Z,9.13
2017-09-21T07:35:33.747Z,9.31
2017-09-21T07:36:33.736Z,9.48
2017-09-21T07:37:33.717Z,9.99
2017-09-21T07:38:33.703Z,10.42
2017-09-21T07:39:33.690Z,11.03
2017-09-21T07:40:33.781Z,11.85
2017-09-21T07:41:33.764Z,12.59
2017-09-21T07:42:33.652Z,13.08
2017-09-21T07:43:33.637Z,13.51
2017-09-21T07:44:33.625Z,14.10
2017-09-21T07:45:33.612Z,14.95
2017-09-21T07:46:33.601Z,15.78
2017-09-21T07:47:33.690Z,16.73
2017-09-21T07:48:33.579Z,17.34
2017-09-21T07:49:33.564Z,17.56
2017-09-21T07:50:33.552Z,17.58
2017-09-21T07:51:33.542Z,17.55
2017-09-21T07:52:33.537Z,17.81
2017-09-21T07:53:33.619Z,17.74
2017-09-21T07:54:33.609Z,18.30
2017-09-21T07:55:33.504Z,18.91
2017-09-21T07:56:33.487Z,19.78
2017-09-21T07:57:33.480Z,19.81
2017-09-21T07:58:33.469Z,20.39
2017-09-21T07:59:33.463Z,20.70
2017-09-21T08:00:33.560Z,21.03
2017-09-21T08:01:33.452Z,21.31
2017-09-21T08:02:33.439Z,21.64
2017-09-21T08:03:33.435Z,22.21
2017-09-21T08:04:33.432Z,22.21
2017-09-21T08:05:33.428Z,22.18
2017-09-21T08:06:33.518Z,21.92
2017-09-21T08:07:33.414Z,21.77
2017-09-21T08:08:33.407Z,21.62
2017-09-21T08:09:33.405Z,21.69
2017-09-21T08:10:33.403Z,21.62
2017-09-21T08:11:33.402Z,21.44
2017-09-21T08:12:33.497Z,21.06
2017-09-21T08:13:33.403Z,20.99
2017-09-21T08:14:33.397Z,20.82
2017-09-21T08:15:33.403Z,20.82
2017-09-21T08:16:33.399Z,21.22
2017-09-21T08:17:33.397Z,21.10
2017-09-21T08:18:33.498Z,21.03
2017-09-21T08:19:33.402Z,20.50
2017-09-21T08:20:33.408Z,20.47
2017-09-21T08:21:33.404Z,19.94
2017-09-21T08:22:33.410Z,19.86
2017-09-21T08:23:33.411Z,19.48
2017-09-21T08:24:33.515Z,19.56
2017-09-21T08:25:33.418Z,19.41
2017-09-21T08:26:33.423Z,19.08
2017-09-21T08:27:33.428Z,18.98
2017-09-21T08:28:33.437Z,18.15
2017-09-21T08:29:33.437Z,17.54
2017-09-21T08:30:33.542Z,17.03
2017-09-21T08:31:33.448Z,16.89
2017-09-21T08:32:33.455Z,16.42
2017-09-21T08:33:33.462Z,16.01
2017-09-21T08:34:33.463Z,15.23
2017-09-21T08:35:33.470Z,14.69
2017-09-21T08:36:33.579Z,14.64
2017-09-21T08:37:33.481Z,14.58
2017-09-21T08:38:33.493Z,14.54
2017-09-21T08:39:33.600Z,14.00
2017-09-21T08:40:33.500Z,13.66
2017-09-21T08:41:33.508Z,13.23
2017-09-21T08:42:33.615Z,13.14
2017-09-21T08:43:33.527Z,13.00
2017-09-21T08:44:33.526Z,12.68
2017-09-21T08:45:33.532Z,12.50
2017-09-21T08:46:33.543Z,12.52
2017-09-21T08:47:33.549Z,12.05
2017-09-21T08:48:33.648Z,11.90
2017-09-21T08:49:33.554Z,11.67
2017-09-21T08:50:33.558Z,11.51
2017-09-21T08:51:33.561Z,11.25
2017-09-21T08:52:33.565Z,11.04
2017-09-21T08:53:33.568Z,10.99
2017-09-21T08:54:33.670Z,10.97
2017-09-21T08:55:33.577Z,10.99
2017-09-21T08:56:33.573Z,10.97
2017-09-21T08:57:33.574Z,10.82
2017-09-21T08:58:33.575Z,10.76
2017-09-21T08:59:33.573Z,10.91
2017-09-21T09:00:33.673Z,10.91
2017-09-21T09:01:33.571Z,11.02
2017-09-21T09:02:33.571Z,11.06
2017-09-21T09:03:33.569Z,11.06
2017-09-21T09:04:33.567Z,11.00
2017-09-21T09:05:33.563Z,10.94
2017-09-21T09:06:33.660Z,10.88
2017-09-21T09:07:33.555Z,10.85
2017-09-21T09:08:33.554Z,10.96
2017-09-21T09:09:33.549Z,11.00
2017-09-21T09:10:33.546Z,11.03
2017-09-21T09:11:33.539Z,11.07
2017-09-21T09:12:33.634Z,11.03
2017-09-21T09:13:33.529Z,10.79
2017-09-21T09:14:33.522Z,10.79
2017-09-21T09:15:33.518Z,10.79
2017-09-21T09:16:33.512Z,10.97
2017-09-21T09:17:33.510Z,11.03
2017-09-21T09:18:33.601Z,11.07
2017-09-21T09:19:33.600Z,11.14
2017-09-21T09:20:33.489Z,11.15
2017-09-21T09:21:33.484Z,11.02
2017-09-21T09:22:33.472Z,10.99
2017-09-21T09:23:33.470Z,11.00
2017-09-21T09:24:33.562Z,10.89
2017-09-21T09:25:33.451Z,10.84
2017-09-21T09:26:33.441Z,10.74
2017-09-21T09:27:33.439Z,10.64
2017-09-21T09:28:33.430Z,10.61
2017-09-21T09:29:33.427Z,10.71
2017-09-21T09:30:33.511Z,10.84
2017-09-21T09:31:33.401Z,10.61
2017-09-21T09:32:33.392Z,10.59
2017-09-21T09:33:33.384Z,10.53
2017-09-21T09:34:33.377Z,10.51
2017-09-21T09:35:33.366Z,10.56
2017-09-21T09:36:33.463Z,10.63
2017-09-21T09:37:33.351Z,10.74
2017-09-21T09:38:33.340Z,10.79
2017-09-21T09:39:33.337Z,10.74
2017-09-21T09:40:33.321Z,10.82
2017-09-21T09:41:33.312Z,10.79
2017-09-21T09:42:33.402Z,10.94
2017-09-21T09:43:33.294Z,10.86
2017-09-21T09:44:33.288Z,10.76
2017-09-21T09:45:33.273Z,10.78
2017-09-21T09:46:33.366Z,10.81
2017-09-21T09:47:33.260Z,10.94
2017-09-21T09:48:33.349Z,10.89
2017-09-21T09:49:33.241Z,10.99
2017-09-21T09:50:33.225Z,11.33
2017-09-21T09:51:33.215Z,11.54
2017-09-21T09:52:33.205Z,11.54
2017-09-21T09:53:33.197Z,11.47
2017-09-21T09:54:33.289Z,11.49
2017-09-21T09:55:33.177Z,11.54
2017-09-21T09:56:33.166Z,11.70
2017-09-21T09:57:33.257Z,11.44
2017-09-21T09:58:33.147Z,11.52
2017-09-21T09:59:33.138Z,11.73
2017-09-21T10:00:33.227Z,11.75
2017-09-21T10:01:33.117Z,11.47
2017-09-21T10:02:33.115Z,11.47
2017-09-21T10:03:33.102Z,11.37
2017-09-21T10:04:33.086Z,11.46
2017-09-21T10:05:33.083Z,11.49
2017-09-21T10:06:33.173Z,11.46
2017-09-21T10:07:33.058Z,11.42
2017-09-21T10:08:33.052Z,11.27
2017-09-21T10:09:33.036Z,11.18
2017-09-21T10:10:33.027Z,11.39
2017-09-21T10:11:33.017Z,11.69
2017-09-21T10:12:33.107Z,11.86
2017-09-21T10:13:32.995Z,12.38
2017-09-21T10:14:32.991Z,12.89
2017-09-21T10:15:32.976Z,13.11
2017-09-21T10:16:32.965Z,13.41
2017-09-21T10:17:32.957Z,13.32
2017-09-21T10:18:33.046Z,13.22
2017-09-21T10:19:32.937Z,12.92
2017-09-21T10:20:32.925Z,12.50
2017-09-21T10:21:32.916Z,12.45
2017-09-21T10:22:32.906Z,12.39
2017-09-21T10:23:32.899Z,12.32
2017-09-21T10:24:32.988Z,12.17
2017-09-21T10:25:32.883Z,12.10
2017-09-21T10:26:32.873Z,11.95
2017-09-21T10:27:32.863Z,11.95
2017-09-21T10:28:32.848Z,12.14
2017-09-21T10:29:32.843Z,12.28
2017-09-21T10:30:32.934Z,12.59
2017-09-21T10:31:32.821Z,13.07
2017-09-21T10:32:32.809Z,12.97
2017-09-21T10:33:32.798Z,12.90
2017-09-21T10:34:32.890Z,12.85
2017-09-21T10:35:32.782Z,12.90
2017-09-21T10:36:32.875Z,12.86
2017-09-21T10:37:32.761Z,12.87
2017-09-21T10:38:32.751Z,12.86
2017-09-21T10:39:32.742Z,12.79
2017-09-21T10:40:32.730Z,12.79
2017-09-21T10:41:32.827Z,12.79
2017-09-21T10:42:32.813Z,12.70
2017-09-21T10:43:32.711Z,13.00
2017-09-21T10:44:32.693Z,13.01
2017-09-21T10:45:32.682Z,13.08
2017-09-21T10:46:32.679Z,13.05
2017-09-21T10:47:32.664Z,13.10
2017-09-21T10:48:32.753Z,13.10
2017-09-21T10:49:32.645Z,13.14
2017-09-21T10:50:32.641Z,13.28
2017-09-21T10:51:32.626Z,13.29
2017-09-21T10:52:32.615Z,13.69
2017-09-21T10:53:32.606Z,13.64
2017-09-21T10:54:32.704Z,13.63
2017-09-21T10:55:32.594Z,13.66
2017-09-21T10:56:32.578Z,13.69
2017-09-21T10:57:32.571Z,13.51
2017-09-21T10:58:32.567Z,13.45
2017-09-21T10:59:32.557Z,13.52
2017-09-21T11:00:32.642Z,13.60
2017-09-21T11:01:32.537Z,13.38
2017-09-21T11:02:32.528Z,13.32
2017-09-21T11:03:32.518Z,13.48
2017-09-21T11:04:32.509Z,13.62
2017-09-21T11:05:32.494Z,14.02
2017-09-21T11:06:32.591Z,14.02
2017-09-21T11:07:32.477Z,13.71
2017-09-21T11:08:32.469Z,13.57
2017-09-21T11:09:32.462Z,13.32
2017-09-21T11:10:32.450Z,13.14
2017-09-21T11:11:32.445Z,13.05
2017-09-21T11:12:32.529Z,13.05
2017-09-21T11:13:32.420Z,13.05
2017-09-21T11:14:32.412Z,13.04
2017-09-21T11:15:32.408Z,13.14
2017-09-21T11:16:32.394Z,13.25
2017-09-21T11:17:32.400Z,13.36
2017-09-21T11:18:32.476Z,13.44
2017-09-21T11:19:32.369Z,13.42
2017-09-21T11:20:32.357Z,13.33
2017-09-21T11:21:32.351Z,13.25
2017-09-21T11:22:32.342Z,13.10
2017-09-21T11:23:32.333Z,13.20
2017-09-21T11:24:32.417Z,13.26
2017-09-21T11:25:32.310Z,13.28
2017-09-21T11:26:32.400Z,13.28
2017-09-21T11:27:32.296Z,13.44
2017-09-21T11:28:32.286Z,13.49
2017-09-21T11:29:32.278Z,13.70
2017-09-21T11:30:32.364Z,13.77
2017-09-21T11:31:32.255Z,13.70
2017-09-21T11:32:32.245Z,13.89
2017-09-21T11:33:32.235Z,14.06
2017-09-21T11:34:32.226Z,14.02
2017-09-21T11:35:32.217Z,14.20
2017-09-21T11:36:32.306Z,14.21
2017-09-21T11:37:32.204Z,14.04
2017-09-21T11:38:32.191Z,13.91
2017-09-21T11:39:32.181Z,13.77
2017-09-21T11:40:32.173Z,13.82
2017-09-21T11:41:32.161Z,13.73
2017-09-21T11:42:32.253Z,13.69
2017-09-21T11:43:32.150Z,13.49
2017-09-21T11:44:32.136Z,13.42
2017-09-21T11:45:32.126Z,13.39
2017-09-21T11:46:32.115Z,13.39
2017-09-21T11:47:32.108Z,13.69
2017-09-21T11:48:32.198Z,13.79
2017-09-21T11:49:32.089Z,14.02
2017-09-21T11:50:32.085Z,14.37
2017-09-21T11:51:32.071Z,14.51
2017-09-21T11:52:32.061Z,14.52
2017-09-21T11:53:32.058Z,14.52
2017-09-21T11:54:32.145Z,14.45
2017-09-21T11:55:32.035Z,14.40
2017-09-21T11:56:32.027Z,14.39
2017-09-21T11:57:32.016Z,14.25
2017-09-21T11:58:32.015Z,14.27
2017-09-21T11:59:32.001Z,14.15
2017-09-21T12:00:32.096Z,14.12
2017-09-21T12:01:31.993Z,14.00
2017-09-21T12:02:31.979Z,13.97
2017-09-21T12:03:31.970Z,13.87
2017-09-21T12:04:31.955Z,13.81
2017-09-21T12:05:31.951Z,13.75
2017-09-21T12:06:32.037Z,13.70
2017-09-21T12:07:31.930Z,13.60
2017-09-21T12:08:31.920Z,13.55
2017-09-21T12:09:31.911Z,13.52
2017-09-21T12:10:31.900Z,13.59
2017-09-21T12:11:31.995Z,13.70
2017-09-21T12:12:31.883Z,13.70
2017-09-21T12:13:31.975Z,13.71
2017-09-21T12:14:31.865Z,13.91
2017-09-21T12:15:31.858Z,13.89
2017-09-21T12:16:31.847Z,13.99
2017-09-21T12:17:31.839Z,13.99
2017-09-21T12:18:31.828Z,13.97
2017-09-21T12:19:31.919Z,14.03
2017-09-21T12:20:31.810Z,13.99
2017-09-21T12:21:31.806Z,14.00
2017-09-21T12:22:31.791Z,13.99
2017-09-21T12:23:31.788Z,13.99
2017-09-21T12:24:31.774Z,13.99
2017-09-21T12:25:31.864Z,13.92
2017-09-21T12:26:31.756Z,13.92
2017-09-21T12:27:31.747Z,13.78
2017-09-21T12:28:31.739Z,13.81
2017-09-21T12:29:31.729Z,13.84
2017-09-21T12:30:31.725Z,13.85
2017-09-21T12:31:31.816Z,14.06
2017-09-21T12:32:31.706Z,14.02
2017-09-21T12:33:31.692Z,13.97
2017-09-21T12:34:31.682Z,13.88
2017-09-21T12:35:31.673Z,13.89
2017-09-21T12:36:31.666Z,13.89
2017-09-21T12:37:31.761Z,13.96
2017-09-21T12:38:31.648Z,14.02
2017-09-21T12:39:31.638Z,14.06
2017-09-21T12:40:31.627Z,14.02
2017-09-21T12:41:31.624Z,14.17
2017-09-21T12:42:31.615Z,14.32
2017-09-21T12:43:31.701Z,14.46
2017-09-21T12:44:31.592Z,14.37
2017-09-21T12:45:31.584Z,14.28
2017-09-21T12:46:31.574Z,14.18
2017-09-21T12:47:31.567Z,14.22
2017-09-21T12:48:31.563Z,14.18
2017-09-21T12:49:31.653Z,14.09
2017-09-21T12:50:31.540Z,14.14
2017-09-21T12:51:31.528Z,14.14
2017-09-21T12:52:31.520Z,14.14
2017-09-21T12:53:31.511Z,14.00
2017-09-21T12:54:31.509Z,13.88
2017-09-21T12:55:31.599Z,13.75
2017-09-21T12:56:31.490Z,13.79
2017-09-21T12:57:31.480Z,13.70
2017-09-21T12:58:31.466Z,13.73
2017-09-21T12:59:31.457Z,13.88
2017-09-21T13:00:31.449Z,13.89
2017-09-21T13:01:31.539Z,13.95
2017-09-21T13:02:31.434Z,14.00
2017-09-21T13:03:31.425Z,14.04
2017-09-21T13:04:31.411Z,14.02
2017-09-21T13:05:31.402Z,14.00
2017-09-21T13:06:31.493Z,14.07
2017-09-21T13:07:31.485Z,14.14